Archival Weather

Chicago O'Hare International

Chicago, Illinois (KORD)

Report from: Monday, January 23, 2023 1:51 PM CST
Current time: Thursday, July 18, 2024 8:53 PM CDT

Current weather – Weather history – Daily summaries
Weather forecast

Temperature-2.2°C (28.0°F)
Wind chill-8.1°C (17.5°F)
Dew point-5.6°C (21.9°F)
Winds 11 kts (5.7 m/s, 12.7 mph) West (260°)
Wind gusts 18 kts (9.3 m/s, 20.7 mph)
Visibility10 mi. (16.1 km)
Clouds Scattered clouds 1,200 ft. (366 m)
Altimeter30.05 in.Hg (1018 mB)
Relative humidity77 %
Density altitude-2,235 ft. (-681 m)
Sea-level pressure101.9 kPa (1019 mB, 30.08 in.Hg)
Remarks Automated weather observing station with precipitation discriminator
Flight conditions Visual Meteorological Conditions
Raw dataKORD 231951Z 26011G18KT 10SM SCT012 M02/M06 A3005 RMK AO2 SLP187 T10221056
An error has occurred. This application may no longer respond until reloaded. Reload 🗙